Spring Mountain Youth Camp, Nevada Weather observations

Data are for 60 minute period ending at time listed.
 Day   Time   Solar   Ave.   Ave.  Ave.  Vector  Max.   Baro.   Total    
  of    of     Rad.   Air    Rel.  Wind   Wind   Wind  Press.  Precip.   
Year   Day            Temp.  Hum.  Speed  Dir.   Gust                    
2015   (PST)  Kw/m2    F      %     mph   deg.    mph    mb.     in.     
-------------------------------------------------------------------------
 146   18:00   0.20   55.4    40    8.8   168    17.7   791.0    0.00 
 146   19:00   0.03   52.6    40    3.7   156    10.6   790.9    0.00 
 146   20:00   0.00   51.7    38    1.6   234     4.9   791.0    0.00 
 146   21:00   0.00   51.2    41    1.0   341     3.2   791.3    0.00 
 146   22:00   0.00   50.8    41    1.7   358     3.4   791.3    0.00 
 146   23:00   0.00   49.4    43    3.2    47     4.6   791.2    0.00 
 147    0:00   0.00   48.5    44    3.0    35     4.3   791.2    0.00 
 147    1:00   0.00   48.2    44    3.6    45     5.4   791.1    0.00 
 147    2:00   0.00   49.7    39    3.7   117     6.9   791.1    0.00 
 147    3:00   0.00   49.0    40    5.4   146     8.4   791.1    0.00 
 147    4:00   0.00   48.0    41    4.1   141     7.1   791.1    0.00 
 147    5:00   0.01   47.5    42    3.4   108     5.6   791.3    0.00 
 147    6:00   0.08   48.2    43    3.1   116     5.8   791.4    0.00 
 147    7:00   0.32   52.2    39    4.9   146    10.2   791.8    0.00 
 147    8:00   0.38   54.5    36    7.4   154    13.7   792.1    0.00 
 147    9:00   0.56   55.8    33   10.5   160    20.2   792.2    0.00 
 147   10:00   0.88   57.1    32   12.0   162    23.3   792.1    0.00 
 147   11:00   0.99   57.8    29   10.2   145    21.3   792.3    0.00 
 147   12:00   1.04   58.4    28   10.0   143    20.5   792.3    0.00 
 147   13:00   1.05   60.5    27   10.1   150    22.0   792.2    0.00 
 147   14:00   1.00   60.9    26   11.9   148    22.4   792.0    0.00 
 147   15:00   0.73   61.6    25   13.3   161    22.1   791.6    0.00 
 147   16:00   0.67   62.0    23   14.8   172    26.3   791.4    0.00 
 147   17:00   0.46   61.1    22   13.1   172    22.1   791.4    0.00 

Return to Spring Mountain Youth Camp graphs page.


Western Regional Climate Center,wrcc@dri.edu